createdAt,value
2018-04-17T00:01:46.483Z,66.20
2018-04-17T00:04:14.744Z,65.63
2018-04-17T00:06:43.023Z,61.57
2018-04-17T00:09:11.327Z,72.83
2018-04-17T00:11:38.884Z,69.73
2018-04-17T00:14:06.374Z,69.37
2018-04-17T00:16:33.887Z,67.60
2018-04-17T00:19:02.151Z,63.00
2018-04-17T00:21:29.654Z,67.67
2018-04-17T00:23:57.142Z,68.70
2018-04-17T00:26:24.675Z,65.67
2018-04-17T00:28:52.157Z,67.73
2018-04-17T00:31:19.690Z,65.53
2018-04-17T00:33:47.174Z,61.37
2018-04-17T00:36:14.705Z,65.73
2018-04-17T00:38:42.210Z,65.33
2018-04-17T00:41:09.723Z,67.23
2018-04-17T00:43:37.266Z,68.83
2018-04-17T00:46:04.798Z,71.77
2018-04-17T00:48:33.066Z,68.60
2018-04-17T00:51:00.567Z,68.97
2018-04-17T00:53:39.935Z,63.00
2018-04-17T00:56:07.447Z,65.50
2018-04-17T00:58:35.740Z,64.67
2018-04-17T01:01:03.248Z,72.47
2018-04-17T01:03:30.743Z,64.33
2018-04-17T01:05:58.256Z,63.67
2018-04-17T01:08:25.835Z,68.23
2018-04-17T01:10:53.421Z,67.50
2018-04-17T01:13:21.688Z,70.93
2018-04-17T01:15:49.977Z,70.37
2018-04-17T01:18:18.236Z,69.53
2018-04-17T01:20:46.606Z,65.57
2018-04-17T01:23:14.119Z,66.10
2018-04-17T01:25:41.631Z,66.47
2018-04-17T01:28:09.230Z,66.70
2018-04-17T01:30:36.753Z,64.27
2018-04-17T01:33:04.281Z,64.17
2018-04-17T01:35:31.835Z,68.77
2018-04-17T01:37:59.375Z,68.37
2018-04-17T01:40:26.885Z,68.63
2018-04-17T01:42:54.398Z,65.10
2018-04-17T01:45:21.918Z,66.47
2018-04-17T01:47:50.181Z,72.80
2018-04-17T01:50:18.443Z,65.67
2018-04-17T01:52:46.026Z,61.60
2018-04-17T01:55:14.282Z,63.67
2018-04-17T01:57:42.558Z,62.53
2018-04-17T02:00:10.058Z,62.57
2018-04-17T02:02:37.597Z,63.70
2018-04-17T02:05:05.913Z,66.87
2018-04-17T02:07:33.408Z,67.83
2018-04-17T02:10:00.926Z,61.90
2018-04-17T02:12:28.414Z,68.50
2018-04-17T02:14:55.923Z,66.53
2018-04-17T02:17:23.423Z,69.00
2018-04-17T02:19:50.922Z,63.80
2018-04-17T02:22:19.212Z,67.67
2018-04-17T02:24:47.496Z,66.17
2018-04-17T02:27:15.073Z,68.83
2018-04-17T02:29:42.576Z,68.83
2018-04-17T02:32:10.074Z,68.57
2018-04-17T02:34:37.595Z,71.60
2018-04-17T02:37:06.336Z,69.53
2018-04-17T02:39:33.838Z,76.13
2018-04-17T02:42:01.334Z,73.20
2018-04-17T02:44:28.828Z,74.07
2018-04-17T02:46:56.371Z,71.03
2018-04-17T02:49:23.866Z,69.80
2018-04-17T02:51:51.392Z,69.03
2018-04-17T02:54:18.918Z,76.13
2018-04-17T02:56:47.191Z,71.43
2018-04-17T02:59:15.494Z,70.70
2018-04-17T03:01:43.023Z,80.97
2018-04-17T03:04:11.301Z,73.67
2018-04-17T03:06:39.574Z,71.43
2018-04-17T03:09:07.825Z,71.20
2018-04-17T03:11:35.356Z,73.83
2018-04-17T03:14:03.762Z,71.13
2018-04-17T03:16:31.354Z,65.10
2018-04-17T03:18:59.634Z,74.07
2018-04-17T03:21:27.891Z,71.60
2018-04-17T03:23:55.407Z,70.30
2018-04-17T03:26:23.427Z,70.27
2018-04-17T03:28:50.939Z,73.73
2018-04-17T03:31:18.462Z,67.87
2018-04-17T03:33:46.823Z,79.40
2018-04-17T03:36:14.345Z,77.83
2018-04-17T03:38:41.837Z,74.40
2018-04-17T03:41:10.130Z,71.90
2018-04-17T03:43:38.400Z,74.60
2018-04-17T03:46:06.670Z,73.27
2018-04-17T03:48:34.189Z,78.77
2018-04-17T03:51:01.696Z,79.70
2018-04-17T03:53:30.004Z,83.23
2018-04-17T03:55:57.545Z,87.17
2018-04-17T03:58:25.046Z,92.70
2018-04-17T04:00:52.553Z,86.57
2018-04-17T04:03:20.830Z,91.70
2018-04-17T04:05:48.335Z,85.63
2018-04-17T04:08:15.852Z,90.50
2018-04-17T04:10:43.446Z,108.20
2018-04-17T04:13:10.954Z,93.80
2018-04-17T04:15:38.447Z,90.20
2018-04-17T04:18:17.748Z,96.90
2018-04-17T04:20:58.132Z,92.60
2018-04-17T04:23:38.244Z,83.27
2018-04-17T04:26:17.399Z,91.77
2018-04-17T04:28:45.677Z,89.03
2018-04-17T04:31:13.985Z,94.30
2018-04-17T04:33:41.477Z,87.43
2018-04-17T04:36:08.979Z,78.83
2018-04-17T04:38:37.258Z,70.17
2018-04-17T04:41:04.859Z,73.30
2018-04-17T04:43:32.362Z,76.23
2018-04-17T04:45:59.897Z,79.53
2018-04-17T04:48:27.405Z,82.83
2018-04-17T04:50:55.678Z,85.23
2018-04-17T04:53:23.203Z,83.23
2018-04-17T04:55:50.819Z,82.90
2018-04-17T04:58:18.311Z,85.80
2018-04-17T05:00:45.820Z,99.63
2018-04-17T05:03:13.322Z,89.50
2018-04-17T05:05:40.849Z,100.90
2018-04-17T05:08:08.404Z,96.63
2018-04-17T05:10:35.902Z,99.83
2018-04-17T05:13:03.419Z,95.80
2018-04-17T05:15:30.964Z,109.23
2018-04-17T05:17:59.250Z,102.50
2018-04-17T05:20:26.752Z,93.87
2018-04-17T05:22:54.384Z,91.83
2018-04-17T05:25:21.893Z,94.33
2018-04-17T05:27:49.499Z,94.17
2018-04-17T05:30:17.054Z,101.30
2018-04-17T05:32:44.549Z,103.53
2018-04-17T05:35:12.049Z,94.20
2018-04-17T05:37:40.397Z,94.17
2018-04-17T05:40:07.889Z,91.67
2018-04-17T05:42:36.283Z,96.03
2018-04-17T05:45:03.792Z,89.63
2018-04-17T05:47:31.426Z,89.57
2018-04-17T05:49:58.962Z,89.87
2018-04-17T05:52:26.539Z,85.37
2018-04-17T05:54:54.081Z,83.90
2018-04-17T05:57:21.614Z,87.43
2018-04-17T05:59:49.193Z,86.77
2018-04-17T06:02:17.478Z,82.83
2018-04-17T06:04:45.060Z,80.23
2018-04-17T06:07:12.611Z,82.27
2018-04-17T06:09:40.109Z,74.63
2018-04-17T06:12:07.612Z,84.73
2018-04-17T06:14:35.142Z,85.97
2018-04-17T06:17:02.625Z,79.50
2018-04-17T06:19:30.147Z,76.70
2018-04-17T06:21:57.665Z,77.87
2018-04-17T06:24:25.167Z,80.90
2018-04-17T06:26:53.439Z,77.67
2018-04-17T06:29:21.742Z,75.10
2018-04-17T06:31:50.706Z,76.90
2018-04-17T06:34:18.222Z,79.50
2018-04-17T06:36:45.717Z,82.93
2018-04-17T06:39:13.281Z,73.87
2018-04-17T06:41:40.800Z,76.37
2018-04-17T06:44:08.355Z,81.87
2018-04-17T06:46:35.855Z,81.07
2018-04-17T06:49:03.366Z,75.83
2018-04-17T06:51:30.868Z,71.97
2018-04-17T06:53:58.375Z,76.10
2018-04-17T06:56:26.672Z,76.43
2018-04-17T06:58:54.188Z,74.93
2018-04-17T07:01:21.675Z,73.97
2018-04-17T07:03:49.962Z,66.37
2018-04-17T07:06:17.458Z,69.97
2018-04-17T07:08:45.063Z,73.77
2018-04-17T07:11:13.327Z,68.80
2018-04-17T07:13:40.837Z,73.17
2018-04-17T07:16:08.366Z,73.33
2018-04-17T07:18:36.631Z,72.23
2018-04-17T07:21:04.934Z,68.50
2018-04-17T07:23:32.434Z,70.30
2018-04-17T07:25:59.931Z,66.20
2018-04-17T07:28:28.189Z,65.83
2018-04-17T07:30:55.704Z,69.23
2018-04-17T07:33:23.214Z,74.57
2018-04-17T07:35:51.461Z,66.93
2018-04-17T07:38:20.467Z,65.43
2018-04-17T07:40:48.003Z,67.53
2018-04-17T07:43:15.497Z,67.30
2018-04-17T07:45:43.006Z,65.20
2018-04-17T07:48:23.193Z,61.63
2018-04-17T07:50:50.699Z,66.00
2018-04-17T07:53:18.202Z,65.97
2018-04-17T07:55:45.764Z,66.43
2018-04-17T07:58:13.235Z,61.63
2018-04-17T08:00:40.723Z,60.13
2018-04-17T08:03:09.032Z,61.20
2018-04-17T08:05:36.519Z,61.77
2018-04-17T08:08:04.222Z,62.57
2018-04-17T08:10:32.572Z,61.13
2018-04-17T08:13:00.070Z,60.07
2018-04-17T08:15:27.576Z,60.90
2018-04-17T08:17:55.062Z,57.00
2018-04-17T08:20:23.329Z,58.20
2018-04-17T08:22:52.343Z,54.47
2018-04-17T08:25:20.603Z,57.47
2018-04-17T08:27:48.875Z,58.33
2018-04-17T08:30:16.370Z,55.77
2018-04-17T08:32:43.885Z,56.60
2018-04-17T08:35:11.511Z,54.67
2018-04-17T08:37:39.028Z,53.50
2018-04-17T08:40:07.324Z,49.80
2018-04-17T08:42:34.834Z,46.87
2018-04-17T08:45:02.348Z,49.70
2018-04-17T08:47:29.886Z,50.53
2018-04-17T08:49:58.250Z,51.03
2018-04-17T08:52:25.749Z,48.97
2018-04-17T08:54:53.278Z,49.03
2018-04-17T08:57:21.659Z,47.13
2018-04-17T08:59:50.611Z,45.47
2018-04-17T09:02:18.094Z,46.63
2018-04-17T09:04:45.671Z,44.43
2018-04-17T09:07:13.926Z,58.30
2018-04-17T09:09:41.538Z,44.33
2018-04-17T09:12:09.079Z,44.47
2018-04-17T09:14:36.626Z,38.43
2018-04-17T09:17:04.908Z,42.07
2018-04-17T09:19:33.166Z,38.40
2018-04-17T09:22:00.758Z,36.23
2018-04-17T09:24:28.648Z,38.27
2018-04-17T09:26:56.154Z,37.00
2018-04-17T09:29:23.654Z,33.97
2018-04-17T09:31:51.139Z,33.53
2018-04-17T09:34:18.655Z,32.90
2018-04-17T09:36:46.209Z,35.17
2018-04-17T09:39:13.774Z,30.57
2018-04-17T09:41:41.347Z,32.07
2018-04-17T09:44:08.891Z,33.03
2018-04-17T09:46:37.271Z,31.97
2018-04-17T09:49:04.832Z,34.57
2018-04-17T09:51:32.385Z,33.93
2018-04-17T09:53:59.915Z,33.87
2018-04-17T09:56:27.508Z,34.70
2018-04-17T09:58:55.784Z,34.00
2018-04-17T10:01:23.360Z,32.00
2018-04-17T10:03:50.842Z,31.67
2018-04-17T10:06:18.345Z,29.37
2018-04-17T10:08:46.707Z,28.87
2018-04-17T10:11:14.138Z,28.53
2018-04-17T10:13:41.634Z,28.00
2018-04-17T10:16:10.555Z,29.47
2018-04-17T10:18:38.063Z,30.73
2018-04-17T10:21:05.657Z,28.47
2018-04-17T10:23:33.934Z,27.93
2018-04-17T10:26:02.206Z,28.77
2018-04-17T10:28:30.478Z,27.80
2018-04-17T10:30:58.741Z,26.33
2018-04-17T10:33:26.223Z,26.50
2018-04-17T10:35:54.500Z,26.17
2018-04-17T10:38:22.765Z,25.53
2018-04-17T10:40:51.022Z,26.10
2018-04-17T10:43:18.615Z,25.30
2018-04-17T10:45:46.889Z,29.13
2018-04-17T10:48:15.168Z,27.33
2018-04-17T10:50:43.422Z,25.30
2018-04-17T10:53:10.917Z,23.97
2018-04-17T10:55:38.466Z,23.50
2018-04-17T10:58:05.954Z,23.90
2018-04-17T11:00:33.480Z,23.77
2018-04-17T11:03:01.776Z,24.57
2018-04-17T11:05:29.272Z,24.47
2018-04-17T11:07:56.767Z,25.60
2018-04-17T11:10:25.040Z,23.23
2018-04-17T11:12:53.436Z,20.90
2018-04-17T11:15:20.923Z,21.43
2018-04-17T11:17:48.413Z,22.83
2018-04-17T11:20:15.918Z,22.60
2018-04-17T11:22:43.406Z,22.40
2018-04-17T11:25:11.208Z,21.10
2018-04-17T11:27:38.782Z,18.90
2018-04-17T11:30:07.069Z,19.47
2018-04-17T11:32:34.562Z,20.63
2018-04-17T11:35:02.058Z,18.90
2018-04-17T11:37:29.573Z,19.67
2018-04-17T11:39:57.063Z,20.67
2018-04-17T11:42:24.565Z,19.47
2018-04-17T11:44:52.072Z,18.40
2018-04-17T11:47:19.570Z,19.50
2018-04-17T11:49:47.944Z,19.10
2018-04-17T11:52:16.202Z,20.77
2018-04-17T11:54:43.820Z,18.67
2018-04-17T11:57:11.315Z,18.00
2018-04-17T11:59:38.814Z,18.97
2018-04-17T12:02:06.322Z,18.43
2018-04-17T12:04:33.969Z,18.33
2018-04-17T12:07:01.448Z,20.30
2018-04-17T12:09:29.074Z,18.63
2018-04-17T12:11:56.607Z,19.83
2018-04-17T12:14:24.882Z,19.47
2018-04-17T12:16:52.414Z,17.80
2018-04-17T12:19:19.906Z,19.40
2018-04-17T12:21:47.425Z,18.37
2018-04-17T12:24:14.923Z,18.30
2018-04-17T12:26:42.482Z,17.23
2018-04-17T12:29:10.034Z,16.77
2018-04-17T12:31:37.553Z,18.80
2018-04-17T12:34:05.070Z,18.97
2018-04-17T12:36:32.592Z,18.20
2018-04-17T12:39:00.085Z,16.57
2018-04-17T12:41:27.604Z,17.37
2018-04-17T12:43:55.884Z,18.07
2018-04-17T12:46:23.499Z,17.20
2018-04-17T12:48:51.035Z,15.83
2018-04-17T12:51:18.550Z,16.77
2018-04-17T12:53:46.042Z,15.27
2018-04-17T12:56:14.317Z,18.30
2018-04-17T12:58:42.695Z,18.43
2018-04-17T13:01:10.960Z,17.50
2018-04-17T13:03:39.457Z,18.63
2018-04-17T13:06:06.973Z,17.50
2018-04-17T13:08:34.477Z,17.40
2018-04-17T13:11:02.725Z,16.00
2018-04-17T13:13:30.247Z,18.20
2018-04-17T13:15:57.741Z,16.83
2018-04-17T13:18:25.229Z,18.07
2018-04-17T13:20:53.517Z,17.10
2018-04-17T13:23:21.038Z,16.80
2018-04-17T13:25:48.535Z,17.20
2018-04-17T13:28:16.078Z,16.50
2018-04-17T13:30:44.367Z,16.60
2018-04-17T13:33:12.594Z,16.33
2018-04-17T13:35:40.194Z,16.10
2018-04-17T13:38:07.763Z,16.63
2018-04-17T13:40:35.449Z,15.87
2018-04-17T13:43:02.972Z,17.50
2018-04-17T13:45:31.240Z,16.20
2018-04-17T13:47:59.507Z,16.47
2018-04-17T13:50:27.019Z,15.30
2018-04-17T13:52:54.685Z,15.60
2018-04-17T13:55:22.274Z,14.57
2018-04-17T13:57:49.909Z,15.33
2018-04-17T14:00:18.274Z,16.17
2018-04-17T14:02:45.819Z,13.73
2018-04-17T14:05:13.339Z,13.77
2018-04-17T14:07:40.906Z,13.03
2018-04-17T14:10:08.517Z,14.97
2018-04-17T14:12:36.033Z,11.57
2018-04-17T14:15:04.310Z,12.40
2018-04-17T14:17:31.965Z,13.33
2018-04-17T14:19:59.543Z,13.80
2018-04-17T14:22:27.832Z,11.03
2018-04-17T14:24:55.318Z,10.73
2018-04-17T14:27:22.848Z,10.27
2018-04-17T14:29:51.099Z,9.87
2018-04-17T14:32:18.755Z,10.67
2018-04-17T14:34:46.367Z,11.60
2018-04-17T14:37:13.906Z,11.37
2018-04-17T14:39:42.174Z,10.03
2018-04-17T14:42:10.360Z,10.77
2018-04-17T14:44:37.853Z,11.93
2018-04-17T14:47:05.395Z,11.30
2018-04-17T14:49:32.914Z,9.70
2018-04-17T14:52:00.408Z,10.33
2018-04-17T14:54:27.951Z,9.27
2018-04-17T14:56:55.431Z,9.93
2018-04-17T14:59:22.931Z,8.87
2018-04-17T15:01:50.438Z,9.43
2018-04-17T15:04:17.970Z,8.53
2018-04-17T15:06:46.227Z,8.87
2018-04-17T15:09:13.711Z,8.30
2018-04-17T15:11:42.008Z,10.80
2018-04-17T15:14:09.505Z,10.83
2018-04-17T15:16:37.034Z,8.67
2018-04-17T15:19:04.570Z,8.17
2018-04-17T15:21:32.153Z,7.67
2018-04-17T15:23:59.696Z,7.83
2018-04-17T15:26:27.205Z,7.83
2018-04-17T15:28:54.693Z,8.70
2018-04-17T15:31:22.961Z,9.27
2018-04-17T15:33:51.237Z,9.33
2018-04-17T15:36:18.720Z,7.43
2018-04-17T15:38:47.001Z,9.43
2018-04-17T15:41:14.554Z,9.60
2018-04-17T15:43:43.101Z,7.60
2018-04-17T15:46:12.071Z,7.47
2018-04-17T15:48:39.712Z,7.93
2018-04-17T15:51:07.201Z,7.20
2018-04-17T15:53:34.795Z,9.80
2018-04-17T15:56:02.332Z,10.00
2018-04-17T15:58:29.828Z,9.03
2018-04-17T16:00:58.188Z,9.27
2018-04-17T16:03:25.805Z,9.03
2018-04-17T16:05:53.258Z,9.73
2018-04-17T16:08:20.773Z,11.40
2018-04-17T16:10:49.026Z,9.23
2018-04-17T16:13:16.521Z,11.13
2018-04-17T16:15:44.043Z,8.57
2018-04-17T16:18:11.539Z,8.53
2018-04-17T16:20:39.816Z,10.83
2018-04-17T16:23:07.330Z,8.77
2018-04-17T16:25:34.822Z,7.97
2018-04-17T16:28:03.066Z,8.20
2018-04-17T16:30:30.566Z,7.23
2018-04-17T16:32:58.091Z,7.47
2018-04-17T16:35:25.613Z,9.27
2018-04-17T16:37:53.123Z,7.47
2018-04-17T16:40:20.617Z,7.73
2018-04-17T16:42:48.115Z,7.37
2018-04-17T16:45:15.608Z,8.17
2018-04-17T16:47:43.945Z,7.30
2018-04-17T16:50:11.439Z,7.53
2018-04-17T16:52:39.708Z,7.27
2018-04-17T16:55:07.312Z,8.60
2018-04-17T16:57:34.818Z,8.67
2018-04-17T17:00:02.370Z,7.50
2018-04-17T17:02:29.887Z,10.13
2018-04-17T17:04:57.404Z,9.40
2018-04-17T17:07:24.920Z,10.13
2018-04-17T17:09:52.457Z,8.07
2018-04-17T17:12:20.040Z,9.63
2018-04-17T17:14:47.597Z,8.60
2018-04-17T17:17:15.089Z,8.17
2018-04-17T17:19:42.586Z,10.47
2018-04-17T17:22:10.079Z,9.83
2018-04-17T17:24:37.667Z,9.67
2018-04-17T17:27:05.170Z,7.80
2018-04-17T17:29:32.690Z,7.60
2018-04-17T17:32:00.222Z,8.37
2018-04-17T17:34:27.737Z,8.33
2018-04-17T17:36:56.244Z,13.93
2018-04-17T17:39:23.898Z,18.90
2018-04-17T17:41:51.430Z,15.07
2018-04-17T17:44:19.747Z,8.60
2018-04-17T17:46:48.177Z,8.03
2018-04-17T17:49:15.655Z,8.30
2018-04-17T17:51:43.974Z,13.03
2018-04-17T17:54:11.473Z,8.63
2018-04-17T17:56:38.965Z,7.43
2018-04-17T17:59:07.169Z,7.53
2018-04-17T18:01:34.697Z,7.30
2018-04-17T18:04:02.196Z,10.83
2018-04-17T18:06:29.703Z,7.90
2018-04-17T18:08:57.210Z,7.27
2018-04-17T18:11:24.692Z,7.97
2018-04-17T18:13:53.726Z,7.37
2018-04-17T18:16:21.226Z,12.90
2018-04-17T18:18:48.724Z,10.60
2018-04-17T18:21:16.225Z,11.30
2018-04-17T18:23:43.715Z,9.90
2018-04-17T18:26:11.426Z,9.03
2018-04-17T18:28:38.960Z,8.17
2018-04-17T18:31:07.244Z,10.57
2018-04-17T18:33:35.521Z,9.83
2018-04-17T18:36:03.818Z,14.40
2018-04-17T18:38:31.331Z,10.23
2018-04-17T18:40:58.845Z,10.73
2018-04-17T18:43:26.331Z,11.13
2018-04-17T18:45:53.838Z,8.80
2018-04-17T18:48:21.528Z,12.97
2018-04-17T18:50:49.043Z,13.43
2018-04-17T18:53:17.305Z,12.33
2018-04-17T18:55:44.801Z,12.03
2018-04-17T18:58:12.380Z,12.00
2018-04-17T19:00:41.146Z,11.80
2018-04-17T19:03:08.624Z,15.83
2018-04-17T19:05:36.199Z,12.03
2018-04-17T19:08:03.691Z,12.63
2018-04-17T19:10:31.197Z,11.23
2018-04-17T19:12:58.694Z,10.87
2018-04-17T19:15:26.254Z,11.47
2018-04-17T19:17:53.874Z,12.00
2018-04-17T19:20:21.432Z,13.40
2018-04-17T19:22:48.950Z,11.40
2018-04-17T19:25:16.470Z,12.77
2018-04-17T19:27:44.013Z,9.83
2018-04-17T19:30:11.526Z,11.50
2018-04-17T19:32:39.138Z,12.40
2018-04-17T19:35:06.665Z,11.77
2018-04-17T19:37:34.921Z,12.87
2018-04-17T19:40:02.441Z,12.53
2018-04-17T19:42:29.955Z,11.80
2018-04-17T19:44:58.223Z,12.03
2018-04-17T19:47:26.512Z,16.03
2018-04-17T19:49:54.782Z,14.87
2018-04-17T19:52:23.077Z,19.73
2018-04-17T19:54:50.580Z,14.70
2018-04-17T19:57:18.097Z,19.30
2018-04-17T19:59:45.609Z,15.83
2018-04-17T20:02:13.098Z,16.47
2018-04-17T20:04:40.630Z,18.30
2018-04-17T20:07:08.127Z,17.80
2018-04-17T20:09:35.682Z,19.10
2018-04-17T20:12:03.943Z,18.13
2018-04-17T20:14:32.198Z,20.53
2018-04-17T20:16:59.708Z,19.67
2018-04-17T20:19:27.198Z,19.87
2018-04-17T20:21:54.694Z,19.63
2018-04-17T20:24:22.964Z,22.37
2018-04-17T20:26:50.454Z,19.67
2018-04-17T20:29:17.978Z,20.00
2018-04-17T20:31:45.508Z,21.23
2018-04-17T20:34:12.970Z,20.03
2018-04-17T20:36:40.477Z,21.53
2018-04-17T20:39:08.743Z,20.17
2018-04-17T20:41:37.029Z,20.03
2018-04-17T20:44:05.333Z,21.17
2018-04-17T20:46:32.834Z,19.77
2018-04-17T20:49:00.343Z,21.73
2018-04-17T20:51:27.897Z,21.80
2018-04-17T20:53:55.383Z,20.97
2018-04-17T20:56:22.920Z,20.23
2018-04-17T20:58:50.422Z,22.63
2018-04-17T21:01:17.934Z,22.87
2018-04-17T21:03:45.434Z,24.30
2018-04-17T21:06:13.368Z,22.53
2018-04-17T21:08:40.873Z,21.63
2018-04-17T21:11:08.695Z,23.83
2018-04-17T21:13:36.203Z,22.53
2018-04-17T21:16:03.712Z,22.07
2018-04-17T21:18:31.226Z,23.33
2018-04-17T21:20:58.730Z,25.30
2018-04-17T21:23:26.223Z,23.30
2018-04-17T21:25:53.731Z,23.47
2018-04-17T21:28:21.220Z,25.40
2018-04-17T21:30:48.764Z,24.00
2018-04-17T21:33:16.255Z,22.93
2018-04-17T21:35:44.544Z,22.87
2018-04-17T21:38:12.043Z,24.27
2018-04-17T21:40:39.527Z,21.17
2018-04-17T21:43:07.029Z,24.63
2018-04-17T21:45:34.539Z,23.20
2018-04-17T21:48:02.019Z,20.37
2018-04-17T21:50:29.518Z,21.10
2018-04-17T21:52:57.771Z,22.00
2018-04-17T21:55:25.291Z,22.80
2018-04-17T21:57:52.807Z,23.50
2018-04-17T22:00:21.094Z,23.40
2018-04-17T22:02:49.371Z,23.77
2018-04-17T22:05:17.631Z,22.07
2018-04-17T22:07:45.909Z,21.90
2018-04-17T22:10:13.438Z,21.00
2018-04-17T22:12:40.916Z,20.70
2018-04-17T22:15:08.458Z,21.07
2018-04-17T22:17:35.943Z,21.93
2018-04-17T22:20:03.455Z,21.87
2018-04-17T22:22:30.949Z,25.03
2018-04-17T22:24:58.438Z,24.57
2018-04-17T22:27:26.703Z,23.07
2018-04-17T22:29:54.958Z,22.43
2018-04-17T22:32:22.470Z,23.93
2018-04-17T22:34:49.970Z,22.40
2018-04-17T22:37:17.474Z,22.73
2018-04-17T22:39:44.975Z,24.30
2018-04-17T22:42:12.466Z,25.53
2018-04-17T22:44:39.972Z,21.03
2018-04-17T22:47:07.453Z,22.57
2018-04-17T22:49:34.942Z,23.47
2018-04-17T22:52:03.201Z,24.33
2018-04-17T22:54:30.686Z,24.37
2018-04-17T22:56:58.975Z,23.07
2018-04-17T22:59:26.463Z,22.93
2018-04-17T23:01:54.060Z,22.43
2018-04-17T23:04:21.549Z,24.70
2018-04-17T23:06:49.805Z,23.20
2018-04-17T23:09:17.320Z,24.60
2018-04-17T23:11:44.816Z,26.20
2018-04-17T23:14:12.298Z,25.47
2018-04-17T23:16:40.553Z,26.27
2018-04-17T23:19:08.039Z,26.00
2018-04-17T23:21:35.597Z,25.37
2018-04-17T23:24:03.084Z,26.33
2018-04-17T23:26:30.609Z,25.60
2018-04-17T23:28:58.868Z,25.47
2018-04-17T23:31:26.370Z,25.40
2018-04-17T23:33:53.898Z,28.03
2018-04-17T23:36:21.401Z,27.93
2018-04-17T23:38:48.883Z,27.67
2018-04-17T23:41:16.374Z,29.53
2018-04-17T23:43:44.623Z,28.07
2018-04-17T23:46:12.138Z,31.43
2018-04-17T23:48:39.637Z,28.10
2018-04-17T23:51:07.131Z,31.67
2018-04-17T23:53:35.385Z,32.67
2018-04-17T23:56:02.869Z,28.43
2018-04-17T23:58:30.387Z,30.87
